Terminal Aerodrome Forecast
Issued by NWS

Home | Current Version | Previous Version | Text Only | Print | Product List | Glossary Off
Versions: 1 2 3 4 5 6 7 8 9 10 11 12 13

000
FTUS43 KPAH 211722
TAFOWB
TAF
KOWB 211722Z 2118/2218 09010KT P6SM SCT250
     FM220000 08007KT P6SM BKN150
     FM220900 09008KT P6SM VCSH SCT040 BKN060 PROB30 2212/2218 -SHRA
      BKN040=

USA.gov is the U.S. government's official web portal to all federal, state and local government web resources and services.